Time;durP1;ratioP1;P1;durP2;ratioP2;P2;SDS_P1;SDS_P2;PMS_P1;PMS_P2;Temp;Humidity;BMP_temperature;BMP_pressure;BME280_temperature;BME280_humidity;BME280_pressure;Samples;Min_cycle;Max_cycle;Signal;HPM_P1;HPM_P2
2023/03/25 00:02:20;;;;;;;8.47;1.40;;;;;;;;;;5112049;28;20270;-76
2023/03/25 00:04:50;;;;;;;6.47;1.40;;;;;;;;;;5114822;27;20190;-75
2023/03/25 00:07:18;;;;;;;5.90;1.10;;;;;;;;;;5114614;28;20320;-74
2023/03/25 00:09:46;;;;;;;6.87;1.40;;;;;;;;;;5115466;28;20201;-75
2023/03/25 00:12:13;;;;;;;7.27;1.30;;;;;;;;;;5114915;28;20646;-75
2023/03/25 00:14:41;;;;;;;7.07;1.30;;;;;;;;;;5115089;28;20662;-75
2023/03/25 00:17:09;;;;;;;5.93;1.40;;;;;;;;;;5114714;28;20244;-74
2023/03/25 00:19:38;;;;;;;6.23;1.47;;;;;;;;;;5114692;28;20246;-75
2023/03/25 00:22:05;;;;;;;7.83;1.60;;;;;;;;;;5114903;28;20704;-75
2023/03/25 00:24:32;;;;;;;7.97;1.43;;;;;;;;;;5114809;28;20740;-75
2023/03/25 00:26:59;;;;;;;6.47;1.20;;;;;;;;;;5114608;28;20227;-76
2023/03/25 00:29:26;;;;;;;6.47;1.40;;;;;;;;;;5115033;28;20255;-73
2023/03/25 00:31:54;;;;;;;7.17;1.30;;;;;;;;;;5114097;28;20224;-74
2023/03/25 00:34:21;;;;;;;6.57;1.30;;;;;;;;;;5114849;28;20292;-76
2023/03/25 00:36:50;;;;;;;7.87;1.30;;;;;;;;;;5114404;28;20205;-76
2023/03/25 00:39:17;;;;;;;7.80;1.30;;;;;;;;;;5114901;28;20197;-76
2023/03/25 00:41:44;;;;;;;8.80;1.83;;;;;;;;;;5114034;28;20300;-76
2023/03/25 00:44:13;;;;;;;6.30;1.53;;;;;;;;;;5114143;28;20229;-75
2023/03/25 00:46:40;;;;;;;3.60;1.30;;;;;;;;;;5113668;28;20239;-75
2023/03/25 00:49:07;;;;;;;8.40;1.60;;;;;;;;;;5114048;28;20198;-75
2023/03/25 00:51:35;;;;;;;9.30;1.50;;;;;;;;;;5114169;28;20225;-75
2023/03/25 00:54:03;;;;;;;10.07;1.67;;;;;;;;;;5114131;28;20226;-75
2023/03/25 00:56:31;;;;;;;6.20;1.30;;;;;;;;;;5113908;28;20201;-75
2023/03/25 00:58:58;;;;;;;6.73;1.00;;;;;;;;;;5114287;28;20203;-76
2023/03/25 01:01:27;;;;;;;6.53;1.40;;;;;;;;;;5113765;28;21027;-75
2023/03/25 01:03:57;;;;;;;9.47;1.47;;;;;;;;;;5113761;28;20197;-74
2023/03/25 01:06:27;;;;;;;6.43;1.40;;;;;;;;;;5113977;28;20194;-75
2023/03/25 01:08:55;;;;;;;7.43;1.10;;;;;;;;;;5113868;27;20201;-74
2023/03/25 01:11:25;;;;;;;7.73;1.23;;;;;;;;;;5113509;28;20238;-75
2023/03/25 01:13:53;;;;;;;6.53;1.20;;;;;;;;;;5113183;28;20561;-75
2023/03/25 01:16:20;;;;;;;4.77;1.10;;;;;;;;;;5113256;28;20316;-74
2023/03/25 01:18:47;;;;;;;7.93;1.20;;;;;;;;;;5113295;28;20284;-75
2023/03/25 01:21:14;;;;;;;6.03;1.23;;;;;;;;;;5113610;27;20196;-76
2023/03/25 01:23:42;;;;;;;7.13;1.00;;;;;;;;;;5113787;27;20662;-75
2023/03/25 01:26:09;;;;;;;3.60;1.03;;;;;;;;;;5113528;28;20257;-75
2023/03/25 01:28:38;;;;;;;4.37;0.87;;;;;;;;;;5113458;28;20264;-76
2023/03/25 01:31:07;;;;;;;5.17;0.90;;;;;;;;;;5113250;28;20196;-75
2023/03/25 01:33:34;;;;;;;8.13;1.10;;;;;;;;;;5113495;28;20255;-74
2023/03/25 01:36:02;;;;;;;5.20;1.00;;;;;;;;;;5113607;28;20591;-75
2023/03/25 01:38:29;;;;;;;7.97;1.17;;;;;;;;;;5113495;28;20232;-74
2023/03/25 01:40:57;;;;;;;6.03;1.20;;;;;;;;;;5113420;28;20192;-75
2023/03/25 01:43:25;;;;;;;6.97;1.10;;;;;;;;;;5113153;27;20288;-75
2023/03/25 01:45:53;;;;;;;7.67;1.37;;;;;;;;;;5112759;28;20204;-75
2023/03/25 01:48:22;;;;;;;9.30;1.43;;;;;;;;;;5113008;28;20225;-74
2023/03/25 01:50:53;;;;;;;7.50;1.50;;;;;;;;;;5113119;28;20288;-75
2023/03/25 01:53:20;;;;;;;6.10;1.30;;;;;;;;;;5112977;28;20201;-75
2023/03/25 01:55:51;;;;;;;9.90;1.33;;;;;;;;;;5113393;28;20193;-74
2023/03/25 01:58:19;;;;;;;6.93;1.53;;;;;;;;;;5113398;28;20201;-73
2023/03/25 02:00:47;;;;;;;9.13;1.40;;;;;;;;;;5112520;28;20287;-75
2023/03/25 02:03:17;;;;;;;5.53;1.43;;;;;;;;;;5112973;28;20227;-73
2023/03/25 02:05:47;;;;;;;12.47;1.53;;;;;;;;;;5112885;28;20728;-74
2023/03/25 02:08:15;;;;;;;9.87;1.47;;;;;;;;;;5112782;28;20192;-74
2023/03/25 02:10:45;;;;;;;5.70;1.43;;;;;;;;;;5112546;28;20194;-72
2023/03/25 02:13:12;;;;;;;7.30;1.50;;;;;;;;;;5112363;28;20236;-73
2023/03/25 02:15:50;;;;;;;8.47;1.70;;;;;;;;;;5112885;28;20225;-74
2023/03/25 02:18:27;;;;;;;6.97;1.27;;;;;;;;;;5112194;28;20257;-75
2023/03/25 02:21:08;;;;;;;7.03;1.40;;;;;;;;;;5112525;28;20221;-76
2023/03/25 02:23:47;;;;;;;8.17;1.37;;;;;;;;;;5112897;28;20280;-76
2023/03/25 02:26:22;;;;;;;11.37;1.97;;;;;;;;;;5111919;28;20287;-75
2023/03/25 02:28:51;;;;;;;8.50;1.70;;;;;;;;;;5111960;28;20288;-75
2023/03/25 02:31:33;;;;;;;8.03;1.50;;;;;;;;;;5112535;28;20236;-76
2023/03/25 02:34:13;;;;;;;7.33;1.80;;;;;;;;;;5112172;28;20221;-75
2023/03/25 02:37:04;;;;;;;10.67;1.50;;;;;;;;;;5111976;28;20232;-75
2023/03/25 02:39:35;;;;;;;6.00;1.63;;;;;;;;;;5112290;28;20222;-76
2023/03/25 02:42:05;;;;;;;13.67;1.67;;;;;;;;;;5112226;28;20288;-76
2023/03/25 02:44:36;;;;;;;10.93;1.57;;;;;;;;;;5111862;28;20198;-76
2023/03/25 02:47:05;;;;;;;11.67;1.70;;;;;;;;;;5112135;28;20233;-76
2023/03/25 02:49:36;;;;;;;12.73;1.83;;;;;;;;;;5111955;28;20726;-75
2023/03/25 02:52:07;;;;;;;13.70;1.73;;;;;;;;;;5111679;28;20196;-75
2023/03/25 02:54:38;;;;;;;8.43;1.60;;;;;;;;;;5111773;28;20281;-76
2023/03/25 02:57:06;;;;;;;14.77;2.20;;;;;;;;;;5111235;28;20769;-75
2023/03/25 02:59:37;;;;;;;13.90;2.03;;;;;;;;;;5112430;28;20199;-75
2023/03/25 03:02:07;;;;;;;13.93;2.13;;;;;;;;;;5111661;28;20200;-75
2023/03/25 03:04:45;;;;;;;18.20;2.37;;;;;;;;;;5111751;28;20232;-76
2023/03/25 03:07:13;;;;;;;17.23;2.33;;;;;;;;;;5111789;28;20221;-75
2023/03/25 03:09:45;;;;;;;11.63;1.87;;;;;;;;;;5112325;28;20293;-74
2023/03/25 03:12:23;;;;;;;18.27;2.30;;;;;;;;;;5111331;28;20203;-75
2023/03/25 03:14:57;;;;;;;17.83;2.37;;;;;;;;;;5112011;28;20290;-76
2023/03/25 03:17:28;;;;;;;21.33;2.47;;;;;;;;;;5111321;28;20311;-74
2023/03/25 03:19:57;;;;;;;17.30;2.40;;;;;;;;;;5111591;28;20203;-75
2023/03/25 03:22:38;;;;;;;12.70;2.47;;;;;;;;;;5103099;28;20655;-75
2023/03/25 03:25:11;;;;;;;16.20;2.50;;;;;;;;;;5091183;28;20187;-75
2023/03/25 03:27:40;;;;;;;11.80;2.27;;;;;;;;;;5090867;28;20198;-75
2023/03/25 03:30:10;;;;;;;24.03;2.50;;;;;;;;;;5091131;28;20686;-74
2023/03/25 03:32:42;;;;;;;17.00;2.47;;;;;;;;;;5090559;28;20730;-75
2023/03/25 03:35:10;;;;;;;19.50;2.77;;;;;;;;;;5091282;28;20201;-75
2023/03/25 03:37:40;;;;;;;17.27;2.40;;;;;;;;;;5097515;28;20252;-74
2023/03/25 03:40:11;;;;;;;18.23;2.50;;;;;;;;;;5115566;28;20246;-75
2023/03/25 03:42:41;;;;;;;18.37;2.50;;;;;;;;;;5115098;28;20240;-75
2023/03/25 03:45:10;;;;;;;19.30;4.03;;;;;;;;;;5116084;28;20287;-74
2023/03/25 03:47:40;;;;;;;15.90;2.47;;;;;;;;;;5114872;27;20808;-75
2023/03/25 03:50:09;;;;;;;15.50;2.93;;;;;;;;;;5115380;28;20212;-75
2023/03/25 03:52:38;;;;;;;16.40;2.67;;;;;;;;;;5115853;28;20281;-74
2023/03/25 03:55:09;;;;;;;18.37;3.00;;;;;;;;;;5114929;28;20224;-75
2023/03/25 03:57:40;;;;;;;18.97;2.70;;;;;;;;;;5106353;28;20297;-75
2023/03/25 04:00:10;;;;;;;16.57;2.73;;;;;;;;;;5094925;28;20252;-75
2023/03/25 04:02:39;;;;;;;21.73;2.90;;;;;;;;;;5094942;28;20567;-75
2023/03/25 04:05:07;;;;;;;17.87;2.57;;;;;;;;;;5094663;28;20293;-74
2023/03/25 04:07:37;;;;;;;19.07;2.37;;;;;;;;;;5094424;28;20639;-75
2023/03/25 04:10:13;;;;;;;17.70;2.93;;;;;;;;;;5094436;28;20277;-75
2023/03/25 04:12:43;;;;;;;19.50;3.70;;;;;;;;;;5100643;28;20203;-74
2023/03/25 04:15:10;;;;;;;22.60;2.77;;;;;;;;;;5114997;28;20553;-74
2023/03/25 04:17:38;;;;;;;22.27;2.30;;;;;;;;;;5114850;28;20309;-75
2023/03/25 04:20:07;;;;;;;15.57;2.90;;;;;;;;;;5114843;28;20198;-75
2023/03/25 04:22:36;;;;;;;23.43;2.80;;;;;;;;;;5115057;28;20251;-74
2023/03/25 04:25:04;;;;;;;15.07;2.63;;;;;;;;;;5114175;28;20209;-75
2023/03/25 04:27:31;;;;;;;19.70;2.83;;;;;;;;;;5114768;27;20201;-74
2023/03/25 04:30:01;;;;;;;18.93;3.00;;;;;;;;;;5114645;28;20237;-74
2023/03/25 04:32:30;;;;;;;11.90;3.13;;;;;;;;;;5114505;28;20285;-75
2023/03/25 04:34:57;;;;;;;22.33;3.00;;;;;;;;;;5114717;28;20650;-75
2023/03/25 04:37:24;;;;;;;27.33;3.03;;;;;;;;;;5114467;28;20225;-75
2023/03/25 04:39:52;;;;;;;17.27;2.73;;;;;;;;;;5114118;28;20197;-73
2023/03/25 04:42:20;;;;;;;18.90;2.80;;;;;;;;;;5114674;28;20250;-75
2023/03/25 04:44:47;;;;;;;16.27;2.40;;;;;;;;;;5114470;28;20230;-75
2023/03/25 04:47:17;;;;;;;21.37;2.77;;;;;;;;;;5114151;28;20332;-76
2023/03/25 04:49:44;;;;;;;24.57;2.97;;;;;;;;;;5112942;28;20241;-74
2023/03/25 04:52:11;;;;;;;22.87;2.97;;;;;;;;;;5114054;28;20580;-75
2023/03/25 04:54:39;;;;;;;13.83;2.80;;;;;;;;;;5113704;28;20291;-74
2023/03/25 04:57:07;;;;;;;14.90;2.83;;;;;;;;;;5114093;28;20223;-76
2023/03/25 04:59:34;;;;;;;19.20;2.50;;;;;;;;;;5114109;28;20259;-75
2023/03/25 05:02:04;;;;;;;21.67;3.03;;;;;;;;;;5114402;28;20685;-75
2023/03/25 05:04:33;;;;;;;19.27;2.80;;;;;;;;;;5113989;28;20200;-75
2023/03/25 05:07:01;;;;;;;14.47;2.40;;;;;;;;;;5113768;28;20306;-75
2023/03/25 05:09:29;;;;;;;14.73;2.30;;;;;;;;;;5113274;28;20765;-75
2023/03/25 05:11:56;;;;;;;17.40;2.17;;;;;;;;;;5113803;28;20200;-75
2023/03/25 05:14:23;;;;;;;16.83;2.30;;;;;;;;;;5114126;28;20280;-75
2023/03/25 05:16:50;;;;;;;16.10;2.53;;;;;;;;;;5113476;28;20681;-75
2023/03/25 05:19:19;;;;;;;18.37;2.60;;;;;;;;;;5113530;27;20316;-76
2023/03/25 05:21:47;;;;;;;14.33;2.33;;;;;;;;;;5113386;28;20204;-75
2023/03/25 05:24:14;;;;;;;15.70;2.90;;;;;;;;;;5113627;28;20206;-75
2023/03/25 05:26:42;;;;;;;20.73;3.10;;;;;;;;;;5113089;28;20301;-74
2023/03/25 05:29:12;;;;;;;23.07;3.70;;;;;;;;;;5113689;28;20753;-74
2023/03/25 05:31:40;;;;;;;18.70;3.10;;;;;;;;;;5113400;28;20189;-75
2023/03/25 05:34:08;;;;;;;18.40;3.30;;;;;;;;;;5113188;28;20200;-75
2023/03/25 05:36:35;;;;;;;15.90;3.47;;;;;;;;;;5112591;28;20198;-75
2023/03/25 05:39:04;;;;;;;14.70;3.43;;;;;;;;;;5113257;28;20260;-75
2023/03/25 05:41:37;;;;;;;17.87;3.70;;;;;;;;;;5113692;28;20225;-74
2023/03/25 05:44:05;;;;;;;17.40;3.07;;;;;;;;;;5112959;28;20197;-75
2023/03/25 05:46:33;;;;;;;20.20;3.00;;;;;;;;;;5112753;28;20316;-75
2023/03/25 05:49:00;;;;;;;19.07;3.67;;;;;;;;;;5113413;28;20206;-75
2023/03/25 05:51:28;;;;;;;20.90;3.37;;;;;;;;;;5112672;28;20332;-75
2023/03/25 05:53:55;;;;;;;20.40;3.27;;;;;;;;;;5113033;28;20297;-75
2023/03/25 05:56:24;;;;;;;17.83;2.60;;;;;;;;;;5112955;28;20231;-75
2023/03/25 05:58:52;;;;;;;24.80;2.97;;;;;;;;;;5112956;28;20230;-74
2023/03/25 06:01:21;;;;;;;17.63;2.83;;;;;;;;;;5112693;28;20333;-75
2023/03/25 06:03:49;;;;;;;16.90;2.97;;;;;;;;;;5112623;28;20194;-76
2023/03/25 06:06:18;;;;;;;19.10;3.00;;;;;;;;;;5112347;28;20212;-75
2023/03/25 06:08:46;;;;;;;19.67;3.07;;;;;;;;;;5112802;28;20201;-75
2023/03/25 06:11:13;;;;;;;17.17;3.23;;;;;;;;;;5112691;28;20677;-75
2023/03/25 06:13:48;;;;;;;16.00;2.77;;;;;;;;;;5112444;28;20197;-75
2023/03/25 06:16:17;;;;;;;23.40;3.20;;;;;;;;;;5113155;28;20228;-75
2023/03/25 06:18:49;;;;;;;23.50;3.60;;;;;;;;;;5112343;28;20275;-76
2023/03/25 06:21:16;;;;;;;19.30;3.10;;;;;;;;;;5112101;27;20804;-74
2023/03/25 06:23:43;;;;;;;23.40;3.03;;;;;;;;;;5112313;28;20629;-76
2023/03/25 06:26:11;;;;;;;18.53;3.10;;;;;;;;;;5112726;28;20221;-75
2023/03/25 06:28:38;;;;;;;13.73;2.60;;;;;;;;;;5112551;28;20204;-75
2023/03/25 06:31:12;;;;;;;14.33;2.30;;;;;;;;;;5111906;27;20288;-75
2023/03/25 06:33:40;;;;;;;17.90;2.93;;;;;;;;;;5112234;28;20688;-75
2023/03/25 06:36:07;;;;;;;19.83;3.33;;;;;;;;;;5112265;28;20280;-75
2023/03/25 06:38:35;;;;;;;15.73;2.53;;;;;;;;;;5112122;28;20221;-75
2023/03/25 06:41:02;;;;;;;15.83;3.63;;;;;;;;;;5112409;28;20292;-75
2023/03/25 06:43:29;;;;;;;24.33;3.40;;;;;;;;;;5112011;28;20285;-75
2023/03/25 06:45:56;;;;;;;22.23;3.10;;;;;;;;;;5111963;28;20291;-75
2023/03/25 06:48:25;;;;;;;13.67;2.67;;;;;;;;;;5111903;28;20301;-76
2023/03/25 06:50:53;;;;;;;20.93;4.27;;;;;;;;;;5111913;28;20252;-76
2023/03/25 06:53:20;;;;;;;19.03;4.00;;;;;;;;;;5112425;28;20207;-75
2023/03/25 06:55:48;;;;;;;17.87;3.27;;;;;;;;;;5112009;28;20197;-75
2023/03/25 06:58:15;;;;;;;15.13;2.87;;;;;;;;;;5111648;28;20725;-75
2023/03/25 07:00:43;;;;;;;17.30;2.47;;;;;;;;;;5111805;28;20280;-74
2023/03/25 07:03:11;;;;;;;14.73;2.27;;;;;;;;;;5111574;28;20681;-75
2023/03/25 07:05:41;;;;;;;16.43;2.67;;;;;;;;;;5111855;28;20284;-74
2023/03/25 07:08:08;;;;;;;15.77;2.83;;;;;;;;;;5111878;28;20217;-75
2023/03/25 07:10:36;;;;;;;19.63;3.10;;;;;;;;;;5111687;28;20813;-75
2023/03/25 07:13:03;;;;;;;17.30;2.80;;;;;;;;;;5110753;28;20284;-75
2023/03/25 07:15:30;;;;;;;14.00;2.63;;;;;;;;;;5111891;28;20221;-75
2023/03/25 07:17:57;;;;;;;21.97;3.50;;;;;;;;;;5111596;28;20247;-75
2023/03/25 07:20:24;;;;;;;11.57;2.80;;;;;;;;;;5111000;28;20277;-75
2023/03/25 07:22:54;;;;;;;13.23;2.30;;;;;;;;;;5111665;28;20288;-75
2023/03/25 07:25:21;;;;;;;12.93;3.63;;;;;;;;;;5111411;28;20285;-75
2023/03/25 07:27:48;;;;;;;14.50;3.10;;;;;;;;;;5111521;28;20220;-75
2023/03/25 07:30:16;;;;;;;13.00;2.53;;;;;;;;;;5111184;28;20703;-75
2023/03/25 07:32:44;;;;;;;16.67;3.03;;;;;;;;;;5111323;28;20798;-75
2023/03/25 07:35:11;;;;;;;15.43;2.27;;;;;;;;;;5111359;28;20194;-75
2023/03/25 07:37:39;;;;;;;16.20;2.80;;;;;;;;;;5111205;28;20293;-75
2023/03/25 07:40:08;;;;;;;14.00;2.67;;;;;;;;;;5111185;28;20261;-75
2023/03/25 07:42:37;;;;;;;13.13;2.90;;;;;;;;;;5111392;28;20225;-75
2023/03/25 07:45:04;;;;;;;15.33;2.57;;;;;;;;;;5111310;28;20200;-76
2023/03/25 07:47:31;;;;;;;16.10;2.67;;;;;;;;;;5111291;28;20336;-76
2023/03/25 07:49:59;;;;;;;15.33;2.50;;;;;;;;;;5111340;28;20229;-75
2023/03/25 07:52:26;;;;;;;14.13;2.60;;;;;;;;;;5111285;28;20289;-76
2023/03/25 07:54:53;;;;;;;13.50;2.53;;;;;;;;;;5111147;28;20734;-75
2023/03/25 07:57:22;;;;;;;14.97;2.83;;;;;;;;;;5111274;28;20197;-76
2023/03/25 07:59:49;;;;;;;17.43;3.03;;;;;;;;;;5111047;28;20312;-75
2023/03/25 08:02:16;;;;;;;16.50;3.03;;;;;;;;;;5111314;28;20281;-75
2023/03/25 08:04:43;;;;;;;13.27;2.50;;;;;;;;;;5110955;28;20659;-75
2023/03/25 08:07:11;;;;;;;10.70;2.33;;;;;;;;;;5111622;28;20222;-75
2023/03/25 08:09:38;;;;;;;14.90;2.60;;;;;;;;;;5111293;28;20193;-75
2023/03/25 08:12:05;;;;;;;12.33;2.40;;;;;;;;;;5111176;28;20636;-76
2023/03/25 08:14:34;;;;;;;10.93;2.50;;;;;;;;;;5111249;28;20221;-76
2023/03/25 08:17:01;;;;;;;15.63;2.40;;;;;;;;;;5110659;28;20204;-76
2023/03/25 08:19:28;;;;;;;13.10;2.87;;;;;;;;;;5111494;28;20321;-75
2023/03/25 08:21:55;;;;;;;13.07;2.57;;;;;;;;;;5110797;28;20258;-76
2023/03/25 08:24:23;;;;;;;16.57;2.63;;;;;;;;;;5113396;28;20194;-76
2023/03/25 08:26:51;;;;;;;10.83;2.47;;;;;;;;;;5114528;28;21258;-75
2023/03/25 08:29:19;;;;;;;14.67;2.60;;;;;;;;;;5114683;28;20225;-75
2023/03/25 08:31:51;;;;;;;14.23;2.43;;;;;;;;;;5114441;28;20193;-75
2023/03/25 08:34:18;;;;;;;12.80;2.63;;;;;;;;;;5114891;28;20246;-75
2023/03/25 08:36:45;;;;;;;10.47;2.47;;;;;;;;;;5114102;28;20285;-75
2023/03/25 08:39:15;;;;;;;9.63;2.60;;;;;;;;;;5114098;28;20222;-76
2023/03/25 08:41:43;;;;;;;12.23;2.30;;;;;;;;;;5114044;28;20247;-75
2023/03/25 08:44:10;;;;;;;11.97;2.30;;;;;;;;;;5114722;28;20233;-76
2023/03/25 08:46:38;;;;;;;18.10;3.17;;;;;;;;;;5113640;28;20233;-76
2023/03/25 08:49:06;;;;;;;12.57;2.70;;;;;;;;;;5114287;28;20237;-76
2023/03/25 08:51:34;;;;;;;13.00;2.77;;;;;;;;;;5114273;28;20212;-75
2023/03/25 08:54:01;;;;;;;14.63;2.50;;;;;;;;;;5114134;28;20190;-76
2023/03/25 08:56:28;;;;;;;11.00;2.40;;;;;;;;;;5114282;28;20658;-75
2023/03/25 08:58:56;;;;;;;11.17;2.50;;;;;;;;;;5114095;28;20205;-75
2023/03/25 09:01:23;;;;;;;13.50;2.37;;;;;;;;;;5113721;28;20761;-76
2023/03/25 09:03:51;;;;;;;12.10;2.57;;;;;;;;;;5114312;28;20197;-76
2023/03/25 09:06:19;;;;;;;14.23;2.63;;;;;;;;;;5113642;28;20251;-76
2023/03/25 09:08:46;;;;;;;15.83;2.43;;;;;;;;;;5113787;28;20292;-76
2023/03/25 09:11:14;;;;;;;15.97;2.67;;;;;;;;;;5116448;27;20280;-76
2023/03/25 09:13:41;;;;;;;14.57;2.77;;;;;;;;;;5112958;28;20229;-75
2023/03/25 09:16:09;;;;;;;18.70;3.00;;;;;;;;;;5104071;28;20203;-76
2023/03/25 09:18:36;;;;;;;16.23;3.00;;;;;;;;;;5093641;28;20286;-76
2023/03/25 09:21:04;;;;;;;17.77;3.33;;;;;;;;;;5104001;28;20329;-76
2023/03/25 09:23:33;;;;;;;11.30;2.40;;;;;;;;;;5093336;28;20244;-76
2023/03/25 09:26:01;;;;;;;16.93;2.80;;;;;;;;;;5100358;28;20706;-76
2023/03/25 09:28:28;;;;;;;14.63;2.70;;;;;;;;;;5098281;28;20217;-77
2023/03/25 09:30:56;;;;;;;15.67;2.83;;;;;;;;;;5107845;28;20240;-76
2023/03/25 09:33:23;;;;;;;18.70;3.00;;;;;;;;;;5113330;28;20573;-75
2023/03/25 09:35:50;;;;;;;14.33;2.83;;;;;;;;;;5112753;28;20288;-76
2023/03/25 09:38:17;;;;;;;24.10;3.77;;;;;;;;;;5113105;28;20194;-75
2023/03/25 09:40:46;;;;;;;14.97;3.13;;;;;;;;;;5112786;28;20316;-76
2023/03/25 09:43:30;;;;;;;21.70;3.50;;;;;;;;;;5112509;28;20288;-76
2023/03/25 09:45:57;;;;;;;17.13;3.50;;;;;;;;;;5112822;28;20677;-76
2023/03/25 09:48:28;;;;;;;21.47;3.83;;;;;;;;;;5113051;27;20221;-76
2023/03/25 09:50:56;;;;;;;14.90;3.10;;;;;;;;;;5113438;28;20251;-78
2023/03/25 09:53:27;;;;;;;18.90;3.37;;;;;;;;;;5113271;28;20285;-76
2023/03/25 09:55:56;;;;;;;18.20;3.40;;;;;;;;;;5110690;28;20228;-76
2023/03/25 09:58:27;;;;;;;19.77;3.50;;;;;;;;;;5112416;28;20189;-76
2023/03/25 10:00:56;;;;;;;18.47;3.57;;;;;;;;;;5113192;28;20679;-75
2023/03/25 10:03:27;;;;;;;19.57;3.87;;;;;;;;;;5112705;27;20190;-76
2023/03/25 10:06:00;;;;;;;20.63;3.63;;;;;;;;;;5112440;28;20194;-77
2023/03/25 10:08:33;;;;;;;19.83;4.53;;;;;;;;;;5113130;27;20229;-76
2023/03/25 10:11:05;;;;;;;18.83;3.87;;;;;;;;;;5112877;28;20225;-76
2023/03/25 10:13:38;;;;;;;15.67;3.27;;;;;;;;;;5111891;28;20628;-77
2023/03/25 10:16:08;;;;;;;22.47;4.57;;;;;;;;;;5099284;28;20289;-76
2023/03/25 10:18:49;;;;;;;21.57;4.27;;;;;;;;;;5112884;28;20198;-76
2023/03/25 10:21:20;;;;;;;17.27;3.70;;;;;;;;;;5108486;27;20221;-75
2023/03/25 10:23:50;;;;;;;18.30;3.83;;;;;;;;;;5113009;27;20220;-76
2023/03/25 10:26:21;;;;;;;22.47;4.17;;;;;;;;;;5111749;28;20225;-76
2023/03/25 10:28:52;;;;;;;16.23;3.83;;;;;;;;;;5111994;28;20232;-75
2023/03/25 10:31:22;;;;;;;19.80;4.03;;;;;;;;;;5112366;28;20225;-75
2023/03/25 10:33:51;;;;;;;26.27;4.33;;;;;;;;;;5106570;28;20198;-75
2023/03/25 10:36:21;;;;;;;17.47;4.03;;;;;;;;;;5103834;28;20193;-76
2023/03/25 10:38:53;;;;;;;20.63;3.83;;;;;;;;;;5111731;28;20225;-76
2023/03/25 10:41:24;;;;;;;18.50;3.33;;;;;;;;;;5111658;27;20217;-76
2023/03/25 10:43:52;;;;;;;15.73;3.57;;;;;;;;;;5111428;28;20254;-77
2023/03/25 10:46:22;;;;;;;15.87;3.23;;;;;;;;;;5112138;28;20601;-76
2023/03/25 10:48:50;;;;;;;15.07;3.37;;;;;;;;;;5109866;28;20289;-77
2023/03/25 10:51:18;;;;;;;16.73;3.40;;;;;;;;;;5105307;28;20198;-76
2023/03/25 10:53:47;;;;;;;17.03;3.47;;;;;;;;;;5111872;27;20635;-75
2023/03/25 10:56:16;;;;;;;16.60;3.17;;;;;;;;;;5105533;28;20201;-77
2023/03/25 10:58:47;;;;;;;14.27;3.43;;;;;;;;;;5110101;28;20202;-76
2023/03/25 11:01:16;;;;;;;16.97;3.13;;;;;;;;;;5108569;28;20230;-76
2023/03/25 11:03:44;;;;;;;13.30;3.13;;;;;;;;;;5108635;28;20760;-75
2023/03/25 11:06:21;;;;;;;18.67;3.50;;;;;;;;;;5111233;28;20230;-76
2023/03/25 11:09:12;;;;;;;17.57;4.80;;;;;;;;;;5111459;28;20221;-76
2023/03/25 11:11:40;;;;;;;14.87;2.90;;;;;;;;;;5095896;28;20200;-76
2023/03/25 11:14:08;;;;;;;14.83;4.73;;;;;;;;;;5108591;28;20289;-74
2023/03/25 11:16:37;;;;;;;17.87;3.97;;;;;;;;;;5110150;28;20301;-74
2023/03/25 11:19:06;;;;;;;13.97;3.10;;;;;;;;;;5111232;28;20574;-75
2023/03/25 11:21:35;;;;;;;12.50;3.10;;;;;;;;;;5111530;28;20321;-75
2023/03/25 11:24:02;;;;;;;16.83;3.20;;;;;;;;;;5111599;28;20619;-75
2023/03/25 11:26:32;;;;;;;14.73;3.80;;;;;;;;;;5111067;28;20245;-74
2023/03/25 11:29:02;;;;;;;14.03;3.07;;;;;;;;;;5111651;28;20200;-75
2023/03/25 11:31:34;;;;;;;16.30;3.03;;;;;;;;;;5111321;28;20202;-74
2023/03/25 11:34:05;;;;;;;19.57;3.47;;;;;;;;;;5111338;28;20559;-74
2023/03/25 11:36:33;;;;;;;17.80;3.87;;;;;;;;;;5111434;28;20648;-74
2023/03/25 11:39:03;;;;;;;17.40;3.17;;;;;;;;;;5111043;28;20193;-74
2023/03/25 11:41:32;;;;;;;11.47;2.83;;;;;;;;;;5111046;28;20233;-74
2023/03/25 11:43:59;;;;;;;13.27;3.07;;;;;;;;;;5111326;28;20212;-74
2023/03/25 11:46:26;;;;;;;15.23;3.10;;;;;;;;;;5111132;28;20741;-74
2023/03/25 11:48:55;;;;;;;16.97;3.20;;;;;;;;;;5111782;28;20224;-74
2023/03/25 11:51:23;;;;;;;19.77;3.30;;;;;;;;;;5111631;28;20217;-73
2023/03/25 11:53:54;;;;;;;19.07;3.30;;;;;;;;;;5111518;28;20637;-73
2023/03/25 11:56:23;;;;;;;17.83;3.37;;;;;;;;;;5111352;28;20201;-74
2023/03/25 11:58:51;;;;;;;13.90;2.80;;;;;;;;;;5112366;28;20277;-74
2023/03/25 12:01:24;;;;;;;13.07;2.93;;;;;;;;;;5115364;28;20252;-74
2023/03/25 12:03:52;;;;;;;15.73;3.33;;;;;;;;;;5114777;28;20712;-73
2023/03/25 12:06:21;;;;;;;14.47;3.20;;;;;;;;;;5114279;28;20289;-74
2023/03/25 12:08:53;;;;;;;13.43;3.20;;;;;;;;;;5114285;28;20229;-74
2023/03/25 12:11:21;;;;;;;12.33;3.20;;;;;;;;;;5114663;28;20280;-72
2023/03/25 12:13:54;;;;;;;11.93;2.90;;;;;;;;;;5114859;28;20201;-74
2023/03/25 12:16:26;;;;;;;11.27;2.95;;;;;;;;;;5114746;28;20553;-74
2023/03/25 12:19:02;;;;;;;16.13;3.08;;;;;;;;;;5114648;28;20319;-73
2023/03/25 12:21:38;;;;;;;14.68;3.13;;;;;;;;;;5114549;28;20311;-73
2023/03/25 12:24:12;;;;;;;14.90;3.20;;;;;;;;;;5114201;28;20254;-74
2023/03/25 12:26:46;;;;;;;13.40;2.83;;;;;;;;;;5114647;28;20745;-73
2023/03/25 12:29:20;;;;;;;14.97;2.63;;;;;;;;;;5114532;28;20200;-74
2023/03/25 12:31:56;;;;;;;11.07;2.97;;;;;;;;;;5115227;28;20254;-74
2023/03/25 12:34:27;;;;;;;13.13;3.00;;;;;;;;;;5114621;28;20221;-73
2023/03/25 12:37:04;;;;;;;13.13;3.03;;;;;;;;;;5111028;28;20622;-75
2023/03/25 12:39:42;;;;;;;18.80;3.10;;;;;;;;;;5106012;28;20194;-74
2023/03/25 12:42:13;;;;;;;19.53;3.00;;;;;;;;;;5113792;28;20317;-74
2023/03/25 12:44:47;;;;;;;10.60;2.40;;;;;;;;;;5107041;28;20225;-74
2023/03/25 12:47:16;;;;;;;12.03;2.37;;;;;;;;;;5109033;28;20314;-75
2023/03/25 12:49:53;;;;;;;12.73;3.13;;;;;;;;;;5093437;28;20247;-75
2023/03/25 12:52:26;;;;;;;11.87;2.70;;;;;;;;;;5103155;27;20201;-75
2023/03/25 12:55:03;;;;;;;19.07;3.30;;;;;;;;;;5120439;27;20285;-74
2023/03/25 12:57:38;;;;;;;12.57;2.43;;;;;;;;;;5108721;27;20193;-73
2023/03/25 13:00:24;;;;;;;12.53;2.90;;;;;;;;;;5108985;27;20205;-74
2023/03/25 13:03:08;;;;;;;11.87;2.60;;;;;;;;;;5111743;27;20225;-74
2023/03/25 13:05:38;;;;;;;17.30;2.77;;;;;;;;;;5110250;27;20288;-75
2023/03/25 13:08:10;;;;;;;14.97;2.60;;;;;;;;;;5110073;28;20247;-75
2023/03/25 13:10:39;;;;;;;14.17;2.73;;;;;;;;;;5109289;28;20190;-75
2023/03/25 13:13:10;;;;;;;15.00;3.17;;;;;;;;;;5113021;28;20251;-75
2023/03/25 13:15:39;;;;;;;14.30;2.37;;;;;;;;;;5112669;28;20225;-74
2023/03/25 13:18:08;;;;;;;9.33;2.00;;;;;;;;;;5112902;28;20280;-74
2023/03/25 13:20:37;;;;;;;9.17;1.97;;;;;;;;;;5112677;28;20385;-75
2023/03/25 13:23:06;;;;;;;10.63;2.70;;;;;;;;;;5110794;28;20194;-75
2023/03/25 13:25:42;;;;;;;8.70;2.20;;;;;;;;;;5113328;28;20194;-74
2023/03/25 13:28:12;;;;;;;8.20;2.67;;;;;;;;;;5110968;28;20204;-75
2023/03/25 13:30:40;;;;;;;18.10;3.28;;;;;;;;;;5113706;28;20197;-74
2023/03/25 13:33:12;;;;;;;15.52;3.05;;;;;;;;;;5113503;28;20239;-74
2023/03/25 13:35:43;;;;;;;14.60;2.90;;;;;;;;;;5112787;28;20190;-74
2023/03/25 13:38:14;;;;;;;13.95;2.53;;;;;;;;;;5112830;28;20223;-74
2023/03/25 13:40:46;;;;;;;15.98;3.08;;;;;;;;;;5112926;28;20308;-74
2023/03/25 13:43:18;;;;;;;17.07;3.80;;;;;;;;;;5112513;28;20189;-75
2023/03/25 13:45:48;;;;;;;15.97;2.97;;;;;;;;;;5112418;28;20680;-75
2023/03/25 13:48:18;;;;;;;14.43;3.38;;;;;;;;;;5112731;28;20274;-75
2023/03/25 13:50:45;;;;;;;11.57;2.40;;;;;;;;;;5112356;28;20652;-74
2023/03/25 13:53:18;;;;;;;16.65;3.42;;;;;;;;;;5112902;28;20197;-73
2023/03/25 13:55:49;;;;;;;14.95;2.85;;;;;;;;;;5112876;28;20651;-74
2023/03/25 13:58:33;;;;;;;15.15;2.92;;;;;;;;;;5112364;28;20666;-74
2023/03/25 14:01:08;;;;;;;15.95;2.97;;;;;;;;;;5109814;27;20302;-74
2023/03/25 14:03:43;;;;;;;17.83;3.20;;;;;;;;;;5112721;28;20202;-74
2023/03/25 14:06:17;;;;;;;10.20;2.40;;;;;;;;;;5112466;28;20263;-74
2023/03/25 14:08:58;;;;;;;14.02;2.47;;;;;;;;;;5112618;27;20189;-74
2023/03/25 14:11:28;;;;;;;15.45;3.00;;;;;;;;;;5118217;27;20581;-75
2023/03/25 14:13:56;;;;;;;12.23;2.45;;;;;;;;;;5117311;27;20289;-74
2023/03/25 14:16:26;;;;;;;11.70;2.40;;;;;;;;;;5112431;28;20689;-74
2023/03/25 14:18:54;;;;;;;9.18;2.75;;;;;;;;;;5111691;28;20775;-75
2023/03/25 14:21:32;;;;;;;13.05;2.80;;;;;;;;;;5106421;27;20647;-74
2023/03/25 14:24:01;;;;;;;13.90;2.88;;;;;;;;;;5111968;28;20201;-74
2023/03/25 14:26:30;;;;;;;11.63;2.53;;;;;;;;;;5111926;28;20540;-74
2023/03/25 14:28:57;;;;;;;12.10;2.33;;;;;;;;;;5091591;28;20238;-74
2023/03/25 14:31:30;;;;;;;10.27;2.35;;;;;;;;;;5117633;27;20544;-74
2023/03/25 14:34:13;;;;;;;12.02;2.50;;;;;;;;;;5109233;27;20277;-74
2023/03/25 14:37:02;;;;;;;7.88;2.10;;;;;;;;;;5107219;28;20221;-74
2023/03/25 14:39:39;;;;;;;12.95;2.63;;;;;;;;;;5107392;28;20878;-74
2023/03/25 14:42:13;;;;;;;10.80;2.03;;;;;;;;;;5114257;27;20277;-75
2023/03/25 14:44:41;;;;;;;9.40;2.03;;;;;;;;;;5117491;27;20196;-75
2023/03/25 14:47:28;;;;;;;10.70;2.70;;;;;;;;;;5120072;27;20316;-75
2023/03/25 14:50:00;;;;;;;11.23;2.65;;;;;;;;;;5123760;27;20212;-74